createdAt,value
2024-03-09T00:01:36.074Z,18.38
2024-03-09T00:04:02.604Z,20.50
2024-03-09T00:06:29.434Z,19.42
2024-03-09T00:08:55.918Z,18.98
2024-03-09T00:11:22.859Z,19.35
2024-03-09T00:13:50.104Z,22.92
2024-03-09T00:16:16.576Z,20.08
2024-03-09T00:18:45.478Z,25.02
2024-03-09T00:21:12.576Z,21.65
2024-03-09T00:23:39.049Z,24.77
2024-03-09T00:26:07.394Z,21.65
2024-03-09T00:28:34.075Z,25.67
2024-03-09T00:31:00.725Z,20.02
2024-03-09T00:33:27.649Z,22.77
2024-03-09T00:35:55.958Z,24.35
2024-03-09T00:38:22.347Z,22.20
2024-03-09T00:40:50.287Z,21.33
2024-03-09T00:43:16.935Z,20.55
2024-03-09T00:45:43.395Z,19.50
2024-03-09T00:48:12.125Z,22.17
2024-03-09T00:50:38.719Z,21.02
2024-03-09T00:53:07.909Z,20.70
2024-03-09T00:55:36.760Z,21.70
2024-03-09T00:58:03.421Z,22.73
2024-03-09T01:00:30.142Z,21.85
2024-03-09T01:02:58.247Z,22.70
2024-03-09T01:05:28.233Z,20.85
2024-03-09T01:07:55.183Z,24.50
2024-03-09T01:10:22.100Z,22.63
2024-03-09T01:12:49.466Z,23.00
2024-03-09T01:15:16.595Z,22.10
2024-03-09T01:17:43.506Z,19.75
2024-03-09T01:20:10.638Z,21.95
2024-03-09T01:22:38.627Z,24.98
2024-03-09T01:25:07.748Z,22.40
2024-03-09T01:27:34.547Z,24.77
2024-03-09T01:30:01.926Z,22.63
2024-03-09T01:32:30.382Z,23.73
2024-03-09T01:34:57.923Z,21.73
2024-03-09T01:37:25.298Z,22.52
2024-03-09T01:39:52.332Z,22.58
2024-03-09T01:42:22.893Z,22.33
2024-03-09T01:44:50.496Z,24.60
2024-03-09T01:47:19.165Z,24.20
2024-03-09T01:49:47.019Z,23.60
2024-03-09T01:52:14.395Z,23.83
2024-03-09T01:54:42.953Z,26.17
2024-03-09T01:57:09.955Z,23.80
2024-03-09T01:59:36.873Z,24.25
2024-03-09T02:02:05.381Z,23.63
2024-03-09T02:04:32.142Z,26.38
2024-03-09T02:07:00.315Z,22.33
2024-03-09T02:09:27.179Z,24.38
2024-03-09T02:11:56.510Z,25.38
2024-03-09T02:14:23.175Z,28.15
2024-03-09T02:16:51.526Z,25.50
2024-03-09T02:19:18.248Z,20.08
2024-03-09T02:21:47.514Z,21.15
2024-03-09T02:24:18.463Z,23.35
2024-03-09T02:26:44.884Z,24.45
2024-03-09T02:29:12.440Z,23.00
2024-03-09T02:31:40.125Z,23.15
2024-03-09T02:34:08.869Z,25.10
2024-03-09T02:36:40.154Z,23.33
2024-03-09T02:39:11.259Z,23.52
2024-03-09T02:41:38.414Z,23.85
2024-03-09T02:44:06.743Z,23.88
2024-03-09T02:46:34.120Z,22.58
2024-03-09T02:49:00.781Z,24.60
2024-03-09T02:51:27.374Z,23.20
2024-03-09T02:53:53.982Z,26.20
2024-03-09T02:56:20.993Z,26.80
2024-03-09T02:58:48.453Z,25.65
2024-03-09T03:01:15.658Z,25.08
2024-03-09T03:03:50.541Z,25.73
2024-03-09T03:06:20.416Z,24.30
2024-03-09T03:08:50.557Z,27.15
2024-03-09T03:11:19.997Z,23.67
2024-03-09T03:13:47.044Z,24.75
2024-03-09T03:16:27.700Z,25.88
2024-03-09T03:18:54.683Z,28.20
2024-03-09T03:21:21.236Z,26.73
2024-03-09T03:23:51.037Z,23.65
2024-03-09T03:26:18.029Z,24.67
2024-03-09T03:28:52.078Z,23.88
2024-03-09T03:31:19.991Z,24.73
2024-03-09T03:33:47.130Z,23.88
2024-03-09T03:36:16.749Z,25.55
2024-03-09T03:38:43.207Z,26.38
2024-03-09T03:41:10.642Z,27.60
2024-03-09T03:43:37.739Z,23.75
2024-03-09T03:46:06.122Z,24.27
2024-03-09T03:48:33.006Z,25.50
2024-03-09T03:51:00.356Z,22.55
2024-03-09T03:53:27.079Z,23.73
2024-03-09T03:55:53.566Z,25.52
2024-03-09T03:58:20.903Z,26.05
2024-03-09T04:00:51.351Z,24.60
2024-03-09T04:03:18.027Z,25.33
2024-03-09T04:05:45.157Z,23.60
2024-03-09T04:08:12.431Z,23.60
2024-03-09T04:10:39.378Z,25.25
2024-03-09T04:13:06.599Z,23.98
2024-03-09T04:15:35.035Z,26.33
2024-03-09T04:18:04.068Z,21.27
2024-03-09T04:20:35.158Z,23.58
2024-03-09T04:23:07.215Z,22.05
2024-03-09T04:25:36.520Z,24.10
2024-03-09T04:28:06.743Z,23.02
2024-03-09T04:30:36.929Z,22.52
2024-03-09T04:33:09.845Z,25.15
2024-03-09T04:35:36.668Z,23.85
2024-03-09T04:38:03.453Z,25.15
2024-03-09T04:40:30.215Z,25.23
2024-03-09T04:42:56.743Z,23.40
2024-03-09T04:45:26.937Z,22.58
2024-03-09T04:47:53.629Z,21.67
2024-03-09T04:50:21.141Z,23.20
2024-03-09T04:52:48.665Z,25.45
2024-03-09T04:55:21.626Z,24.63
2024-03-09T04:57:49.639Z,21.30
2024-03-09T05:00:17.061Z,23.80
2024-03-09T05:02:44.956Z,22.08
2024-03-09T05:05:12.042Z,21.10
2024-03-09T05:07:38.652Z,23.35
2024-03-09T05:10:06.906Z,25.08
2024-03-09T05:12:34.243Z,22.88
2024-03-09T05:15:00.708Z,22.08
2024-03-09T05:17:27.156Z,22.00
2024-03-09T05:19:53.673Z,21.92
2024-03-09T05:22:20.222Z,23.48
2024-03-09T05:24:47.456Z,21.52
2024-03-09T05:27:13.909Z,24.33
2024-03-09T05:29:40.445Z,23.33
2024-03-09T05:32:07.145Z,21.48
2024-03-09T05:34:38.116Z,22.17
2024-03-09T05:37:07.494Z,23.48
2024-03-09T05:39:37.700Z,23.58
2024-03-09T05:42:05.577Z,21.35
2024-03-09T05:44:35.236Z,23.17
2024-03-09T05:47:05.422Z,24.25
2024-03-09T05:49:32.490Z,24.30
2024-03-09T05:51:59.560Z,24.63
2024-03-09T05:54:26.122Z,24.40
2024-03-09T05:56:53.237Z,21.83
2024-03-09T05:59:19.652Z,20.15
2024-03-09T06:01:47.669Z,23.20
2024-03-09T06:04:14.304Z,22.60
2024-03-09T06:06:41.852Z,23.80
2024-03-09T06:09:08.875Z,23.17
2024-03-09T06:11:36.440Z,22.10
2024-03-09T06:14:05.670Z,23.05
2024-03-09T06:16:32.838Z,22.17
2024-03-09T06:18:59.318Z,24.13
2024-03-09T06:21:25.701Z,20.70
2024-03-09T06:23:52.296Z,22.83
2024-03-09T06:26:20.300Z,22.60
2024-03-09T06:28:46.790Z,23.10
2024-03-09T06:31:13.273Z,22.60
2024-03-09T06:33:41.397Z,20.25
2024-03-09T06:36:09.878Z,22.00
2024-03-09T06:38:36.770Z,22.60
2024-03-09T06:41:03.997Z,20.80
2024-03-09T06:43:33.128Z,22.00
2024-03-09T06:46:00.803Z,22.15
2024-03-09T06:48:29.191Z,20.75
2024-03-09T06:50:56.092Z,19.35
2024-03-09T06:53:26.635Z,23.73
2024-03-09T06:55:54.366Z,22.60
2024-03-09T06:58:22.392Z,22.05
2024-03-09T07:00:49.009Z,19.65
2024-03-09T07:03:15.510Z,22.23
2024-03-09T07:05:43.969Z,20.35
2024-03-09T07:08:17.018Z,21.98
2024-03-09T07:10:43.817Z,22.42
2024-03-09T07:13:10.799Z,19.90
2024-03-09T07:15:38.238Z,19.52
2024-03-09T07:18:05.186Z,21.90
2024-03-09T07:20:34.549Z,20.48
2024-03-09T07:23:01.250Z,18.13
2024-03-09T07:25:28.361Z,21.40
2024-03-09T07:27:59.151Z,20.48
2024-03-09T07:30:26.538Z,17.55
2024-03-09T07:32:54.992Z,20.63
2024-03-09T07:35:22.638Z,18.08
2024-03-09T07:37:53.599Z,21.42
2024-03-09T07:40:23.571Z,21.45
2024-03-09T07:42:53.731Z,20.48
2024-03-09T07:45:21.050Z,19.52
2024-03-09T07:47:50.788Z,19.75
2024-03-09T07:50:18.617Z,19.88
2024-03-09T07:52:49.591Z,17.45
2024-03-09T07:55:21.513Z,18.23
2024-03-09T07:57:48.553Z,19.88
2024-03-09T08:00:18.719Z,18.42
2024-03-09T08:02:47.902Z,18.38
2024-03-09T08:05:16.263Z,18.73
2024-03-09T08:07:46.218Z,17.83
2024-03-09T08:10:13.603Z,16.00
2024-03-09T08:12:40.048Z,19.05
2024-03-09T08:15:06.805Z,16.00
2024-03-09T08:17:33.572Z,15.63
2024-03-09T08:20:02.390Z,16.17
2024-03-09T08:22:29.048Z,15.50
2024-03-09T08:24:57.120Z,14.73
2024-03-09T08:27:23.897Z,17.42
2024-03-09T08:29:51.875Z,16.63
2024-03-09T08:32:18.655Z,15.63
2024-03-09T08:34:45.121Z,14.00
2024-03-09T08:37:11.733Z,15.63
2024-03-09T08:39:41.925Z,14.23
2024-03-09T08:42:11.086Z,14.85
2024-03-09T08:44:39.544Z,14.68
2024-03-09T08:47:06.193Z,14.20
2024-03-09T08:49:32.761Z,13.98
2024-03-09T08:51:59.545Z,16.30
2024-03-09T08:54:26.380Z,16.90
2024-03-09T08:56:57.694Z,16.77
2024-03-09T08:59:24.519Z,14.23
2024-03-09T09:01:51.672Z,14.48
2024-03-09T09:04:18.474Z,13.43
2024-03-09T09:06:47.155Z,14.40
2024-03-09T09:09:26.111Z,14.07
2024-03-09T09:11:53.796Z,14.00
2024-03-09T09:14:21.702Z,15.20
2024-03-09T09:16:48.632Z,14.45
2024-03-09T09:19:15.384Z,14.45
2024-03-09T09:21:42.069Z,14.25
2024-03-09T09:24:09.074Z,16.00
2024-03-09T09:26:36.179Z,16.98
2024-03-09T09:29:05.188Z,15.38
2024-03-09T09:31:34.353Z,14.85
2024-03-09T09:34:01.339Z,15.35
2024-03-09T09:36:30.486Z,14.73
2024-03-09T09:38:58.219Z,14.10
2024-03-09T09:41:26.334Z,14.60
2024-03-09T09:43:54.564Z,14.10
2024-03-09T09:46:21.057Z,13.45
2024-03-09T09:48:51.834Z,14.50
2024-03-09T09:51:19.340Z,13.88
2024-03-09T09:53:47.230Z,15.20
2024-03-09T09:56:15.765Z,15.90
2024-03-09T09:58:43.954Z,14.60
2024-03-09T10:01:11.031Z,13.68
2024-03-09T10:03:37.876Z,15.02
2024-03-09T10:06:17.870Z,15.43
2024-03-09T10:08:48.643Z,15.13
2024-03-09T10:11:16.168Z,15.30
2024-03-09T10:13:43.428Z,13.77
2024-03-09T10:16:10.055Z,15.95
2024-03-09T10:18:41.276Z,13.25
2024-03-09T10:21:09.582Z,15.32
2024-03-09T10:23:36.262Z,15.80
2024-03-09T10:26:11.169Z,15.27
2024-03-09T10:28:39.162Z,15.90
2024-03-09T10:31:08.251Z,15.55
2024-03-09T10:33:37.830Z,15.68
2024-03-09T10:36:06.086Z,15.38
2024-03-09T10:38:33.231Z,16.30
2024-03-09T10:41:00.159Z,14.52
2024-03-09T10:43:28.049Z,13.88
2024-03-09T10:45:56.772Z,15.13
2024-03-09T10:48:25.726Z,14.82
2024-03-09T10:51:03.368Z,14.77
2024-03-09T10:53:39.978Z,14.82
2024-03-09T10:56:16.902Z,14.77
2024-03-09T10:58:45.360Z,13.90
2024-03-09T11:01:12.288Z,15.13
2024-03-09T11:03:39.445Z,14.55
2024-03-09T11:06:06.538Z,14.77
2024-03-09T11:08:34.416Z,15.32
2024-03-09T11:11:01.301Z,15.43
2024-03-09T11:13:28.081Z,14.98
2024-03-09T11:15:56.975Z,14.95
2024-03-09T11:18:24.843Z,15.00
2024-03-09T11:21:01.694Z,15.50
2024-03-09T11:23:32.334Z,15.43
2024-03-09T11:26:00.790Z,14.77
2024-03-09T11:28:42.313Z,14.20
2024-03-09T11:31:12.981Z,15.80
2024-03-09T11:33:42.882Z,16.10
2024-03-09T11:36:30.482Z,15.68
2024-03-09T11:39:02.065Z,16.17
2024-03-09T11:41:28.535Z,15.38
2024-03-09T11:43:55.143Z,16.23
2024-03-09T11:46:22.039Z,16.50
2024-03-09T11:48:48.681Z,14.90
2024-03-09T11:51:17.444Z,14.80
2024-03-09T11:53:44.186Z,15.60
2024-03-09T11:56:12.109Z,15.65
2024-03-09T11:58:40.063Z,14.90
2024-03-09T12:01:07.155Z,15.43
2024-03-09T12:03:35.476Z,15.27
2024-03-09T12:06:01.838Z,15.60
2024-03-09T12:08:28.633Z,14.70
2024-03-09T12:10:59.225Z,14.73
2024-03-09T12:13:26.914Z,15.25
2024-03-09T12:15:54.231Z,15.23
2024-03-09T12:18:20.875Z,16.33
2024-03-09T12:20:52.542Z,15.85
2024-03-09T12:23:21.152Z,15.95
2024-03-09T12:25:47.869Z,16.38
2024-03-09T12:28:17.844Z,15.55
2024-03-09T12:30:49.482Z,16.20
2024-03-09T12:33:15.973Z,15.75
2024-03-09T12:35:43.715Z,16.70
2024-03-09T12:38:14.080Z,16.42
2024-03-09T12:40:46.739Z,17.33
2024-03-09T12:43:16.249Z,17.27
2024-03-09T12:45:47.775Z,18.80
2024-03-09T12:48:14.382Z,22.65
2024-03-09T12:50:40.838Z,16.67
2024-03-09T12:53:09.298Z,16.73
2024-03-09T12:55:37.058Z,16.92
2024-03-09T12:58:04.272Z,19.00
2024-03-09T13:00:31.680Z,16.77
2024-03-09T13:02:58.775Z,17.23
2024-03-09T13:05:26.188Z,18.48
2024-03-09T13:07:53.748Z,17.00
2024-03-09T13:10:25.061Z,17.70
2024-03-09T13:12:52.422Z,16.50
2024-03-09T13:15:20.240Z,16.85
2024-03-09T13:17:48.044Z,16.08
2024-03-09T13:20:19.300Z,18.30
2024-03-09T13:22:46.382Z,17.60
2024-03-09T13:25:13.113Z,17.77
2024-03-09T13:27:40.185Z,17.13
2024-03-09T13:30:19.567Z,19.17
2024-03-09T13:32:46.487Z,18.98
2024-03-09T13:35:14.126Z,16.13
2024-03-09T13:37:41.406Z,17.27
2024-03-09T13:40:12.537Z,17.13
2024-03-09T13:42:40.629Z,17.48
2024-03-09T13:45:11.180Z,17.05
2024-03-09T13:47:40.660Z,19.38
2024-03-09T13:50:11.428Z,18.67
2024-03-09T13:52:38.488Z,19.23
2024-03-09T13:55:09.521Z,19.52
2024-03-09T13:57:41.180Z,18.88
2024-03-09T14:00:08.721Z,20.55
2024-03-09T14:02:38.873Z,17.35
2024-03-09T14:05:08.490Z,18.63
2024-03-09T14:07:35.759Z,17.15
2024-03-09T14:10:02.759Z,18.55
2024-03-09T14:12:30.017Z,20.67
2024-03-09T14:14:56.905Z,17.77
2024-03-09T14:17:24.253Z,15.65
2024-03-09T14:19:52.627Z,18.67
2024-03-09T14:22:21.775Z,21.90
2024-03-09T14:24:51.761Z,18.25
2024-03-09T14:27:21.704Z,17.55
2024-03-09T14:29:49.779Z,15.35
2024-03-09T14:32:21.331Z,18.00
2024-03-09T14:34:49.573Z,17.50
2024-03-09T14:37:16.202Z,18.38
2024-03-09T14:39:46.738Z,16.13
2024-03-09T14:42:13.802Z,17.90
2024-03-09T14:44:40.456Z,16.75
2024-03-09T14:47:10.361Z,17.38
2024-03-09T14:49:37.822Z,17.48
2024-03-09T14:52:05.009Z,18.27
2024-03-09T14:54:32.548Z,18.92
2024-03-09T14:57:02.548Z,20.05
2024-03-09T14:59:30.849Z,18.83
2024-03-09T15:01:58.121Z,18.50
2024-03-09T15:04:24.645Z,16.60
2024-03-09T15:06:51.095Z,18.88
2024-03-09T15:09:26.228Z,16.30
2024-03-09T15:11:54.714Z,16.08
2024-03-09T15:14:24.826Z,17.98
2024-03-09T15:16:51.556Z,16.98
2024-03-09T15:19:19.147Z,17.27
2024-03-09T15:21:45.811Z,20.52
2024-03-09T15:24:12.330Z,17.73
2024-03-09T15:26:42.193Z,16.50
2024-03-09T15:29:12.451Z,20.98
2024-03-09T15:31:41.642Z,17.27
2024-03-09T15:34:11.531Z,18.23
2024-03-09T15:36:41.028Z,19.85
2024-03-09T15:39:10.757Z,20.73
2024-03-09T15:41:39.474Z,18.10
2024-03-09T15:44:07.578Z,18.95
2024-03-09T15:46:37.559Z,20.60
2024-03-09T15:49:06.410Z,18.17
2024-03-09T15:51:36.607Z,17.00
2024-03-09T15:54:05.367Z,18.45
2024-03-09T15:56:34.466Z,16.50
2024-03-09T15:59:05.507Z,18.23
2024-03-09T16:01:36.627Z,16.35
2024-03-09T16:04:11.668Z,18.42
2024-03-09T16:06:39.651Z,20.27
2024-03-09T16:09:13.162Z,17.23
2024-03-09T16:14:14.052Z,17.65
2024-03-09T16:19:08.604Z,17.88
2024-03-09T16:21:42.683Z,20.27
2024-03-09T16:24:18.597Z,17.58
2024-03-09T16:26:45.243Z,18.20
2024-03-09T16:29:12.110Z,15.93
2024-03-09T16:31:39.460Z,17.52
2024-03-09T16:34:09.134Z,17.15
2024-03-09T16:36:39.908Z,21.55
2024-03-09T16:39:06.780Z,24.98
2024-03-09T16:41:34.018Z,20.23
2024-03-09T16:44:00.800Z,21.02
2024-03-09T16:46:27.915Z,18.65
2024-03-09T16:48:58.695Z,18.30
2024-03-09T16:51:25.738Z,18.25
2024-03-09T16:53:56.893Z,17.27
2024-03-09T16:56:23.970Z,16.90
2024-03-09T16:58:50.578Z,18.63
2024-03-09T17:01:17.383Z,24.02
2024-03-09T17:03:44.508Z,20.10
2024-03-09T17:06:11.189Z,18.55
2024-03-09T17:08:38.154Z,19.90
2024-03-09T17:11:10.487Z,17.25
2024-03-09T17:13:42.894Z,18.83
2024-03-09T17:16:12.591Z,21.48
2024-03-09T17:18:42.194Z,20.48
2024-03-09T17:21:08.771Z,17.77
2024-03-09T17:23:35.604Z,19.10
2024-03-09T17:26:02.262Z,21.25
2024-03-09T17:28:28.697Z,20.40
2024-03-09T17:30:57.753Z,17.40
2024-03-09T17:33:25.713Z,18.30
2024-03-09T17:35:53.700Z,19.73
2024-03-09T17:38:23.467Z,17.75
2024-03-09T17:40:50.840Z,16.27
2024-03-09T17:43:17.665Z,16.73
2024-03-09T17:45:46.196Z,17.20
2024-03-09T17:48:13.361Z,19.10
2024-03-09T17:51:07.761Z,17.02
2024-03-09T17:53:35.024Z,18.33
2024-03-09T17:56:02.461Z,15.50
2024-03-09T17:58:29.983Z,14.63
2024-03-09T18:00:56.509Z,16.98
2024-03-09T18:03:25.369Z,16.20
2024-03-09T18:05:57.448Z,15.43
2024-03-09T18:08:24.841Z,14.52
2024-03-09T18:10:52.327Z,15.95
2024-03-09T18:13:20.498Z,16.23
2024-03-09T18:15:48.346Z,14.52
2024-03-09T18:18:17.351Z,15.32
2024-03-09T18:20:48.335Z,17.63
2024-03-09T18:23:19.023Z,15.98
2024-03-09T18:25:49.635Z,15.98
2024-03-09T18:28:17.844Z,13.60
2024-03-09T18:30:46.075Z,14.70
2024-03-09T18:33:14.424Z,14.90
2024-03-09T18:35:41.528Z,14.70
2024-03-09T18:38:08.310Z,18.48
2024-03-09T18:40:34.949Z,13.43
2024-03-09T18:43:04.030Z,14.07
2024-03-09T18:45:33.915Z,16.48
2024-03-09T18:48:01.145Z,15.52
2024-03-09T18:50:28.347Z,16.13
2024-03-09T18:52:59.508Z,15.50
2024-03-09T18:55:27.031Z,14.50
2024-03-09T18:57:55.044Z,14.85
2024-03-09T19:04:29.553Z,15.30
2024-03-09T19:06:56.701Z,15.15
2024-03-09T19:09:23.252Z,13.35
2024-03-09T19:11:54.313Z,13.30
2024-03-09T19:14:22.080Z,14.60
2024-03-09T19:16:49.232Z,15.48
2024-03-09T19:19:15.897Z,15.27
2024-03-09T19:21:43.884Z,12.88
2024-03-09T19:24:11.170Z,14.10
2024-03-09T19:26:37.990Z,12.60
2024-03-09T19:29:07.493Z,12.63
2024-03-09T19:31:35.328Z,13.05
2024-03-09T19:34:03.182Z,13.50
2024-03-09T19:36:33.401Z,12.55
2024-03-09T19:39:00.292Z,13.82
2024-03-09T19:41:26.990Z,14.07
2024-03-09T19:43:54.433Z,13.93
2024-03-09T19:46:21.133Z,13.68
2024-03-09T19:48:52.157Z,14.38
2024-03-09T19:51:19.468Z,12.10
2024-03-09T19:53:46.302Z,14.93
2024-03-09T19:56:13.390Z,11.95
2024-03-09T19:58:40.941Z,11.57
2024-03-09T20:01:09.886Z,13.02
2024-03-09T20:03:40.345Z,15.55
2024-03-09T20:06:07.840Z,16.00
2024-03-09T20:08:34.624Z,19.63
2024-03-09T20:11:07.124Z,16.10
2024-03-09T20:13:34.516Z,14.82
2024-03-09T20:16:01.758Z,13.55
2024-03-09T20:18:28.609Z,14.57
2024-03-09T20:20:55.667Z,10.90
2024-03-09T20:23:22.100Z,11.57
2024-03-09T20:25:51.717Z,13.43
2024-03-09T20:28:18.568Z,16.35
2024-03-09T20:30:44.910Z,10.52
2024-03-09T20:33:11.705Z,12.10
2024-03-09T20:35:38.645Z,11.90
2024-03-09T20:38:08.713Z,13.07
2024-03-09T20:40:36.009Z,11.07
2024-03-09T20:43:02.551Z,11.57
2024-03-09T20:45:29.171Z,11.60
2024-03-09T20:47:58.325Z,11.90
2024-03-09T20:50:27.614Z,11.35
2024-03-09T20:53:02.133Z,11.88
2024-03-09T20:55:29.825Z,10.80
2024-03-09T20:57:56.871Z,10.93
2024-03-09T21:00:24.195Z,12.35
2024-03-09T21:02:51.309Z,11.90
2024-03-09T21:05:18.008Z,12.93
2024-03-09T21:07:44.774Z,12.88
2024-03-09T21:10:11.621Z,13.30
2024-03-09T21:12:38.706Z,12.32
2024-03-09T21:15:05.786Z,11.95
2024-03-09T21:17:35.785Z,13.82
2024-03-09T21:20:05.855Z,11.95
2024-03-09T21:22:32.856Z,13.13
2024-03-09T21:25:00.969Z,13.23
2024-03-09T21:27:27.549Z,10.25
2024-03-09T21:29:55.065Z,11.77
2024-03-09T21:32:21.372Z,12.50
2024-03-09T21:34:47.960Z,13.48
2024-03-09T21:37:14.880Z,13.80
2024-03-09T21:39:42.506Z,13.45
2024-03-09T21:42:14.941Z,12.23
2024-03-09T21:44:42.189Z,13.80
2024-03-09T21:47:08.739Z,11.80
2024-03-09T21:49:35.108Z,13.45
2024-03-09T21:52:04.454Z,12.15
2024-03-09T21:54:33.707Z,15.65
2024-03-09T21:57:00.592Z,11.57
2024-03-09T21:59:27.207Z,12.25
2024-03-09T22:01:55.307Z,14.43
2024-03-09T22:04:21.912Z,14.55
2024-03-09T22:06:48.446Z,14.77
2024-03-09T22:09:14.982Z,12.85
2024-03-09T22:11:41.645Z,11.90
2024-03-09T22:14:08.415Z,12.25
2024-03-09T22:16:37.641Z,11.75
2024-03-09T22:19:06.714Z,11.55
2024-03-09T22:21:33.458Z,12.68
2024-03-09T22:24:01.017Z,11.95
2024-03-09T22:26:28.969Z,12.23
2024-03-09T22:28:56.756Z,13.07
2024-03-09T22:31:25.334Z,12.07
2024-03-09T22:33:51.913Z,12.15
2024-03-09T22:36:18.627Z,11.35
2024-03-09T22:38:46.746Z,11.13
2024-03-09T22:41:13.457Z,11.80
2024-03-09T22:43:40.048Z,12.68
2024-03-09T22:46:07.779Z,10.45
2024-03-09T22:48:34.600Z,11.60
2024-03-09T22:51:01.155Z,9.77
2024-03-09T22:53:27.983Z,11.15
2024-03-09T22:55:55.544Z,12.25
2024-03-09T22:58:22.397Z,11.98
2024-03-09T23:01:07.152Z,10.23
2024-03-09T23:03:34.042Z,10.43
2024-03-09T23:06:00.804Z,12.50
2024-03-09T23:08:28.652Z,9.45
2024-03-09T23:10:55.656Z,10.65
2024-03-09T23:13:23.093Z,12.35
2024-03-09T23:15:49.965Z,11.00
2024-03-09T23:18:18.800Z,9.45
2024-03-09T23:20:46.448Z,8.88
2024-03-09T23:23:13.481Z,9.30
2024-03-09T23:25:40.107Z,12.15
2024-03-09T23:28:10.496Z,10.15
2024-03-09T23:30:37.332Z,10.07
2024-03-09T23:33:03.827Z,10.90
2024-03-09T23:35:30.981Z,9.13
2024-03-09T23:37:57.629Z,9.82
2024-03-09T23:40:24.954Z,9.10
2024-03-09T23:42:51.437Z,9.35
2024-03-09T23:45:18.212Z,11.07
2024-03-09T23:47:45.465Z,9.60
2024-03-09T23:50:13.709Z,10.70
2024-03-09T23:52:44.809Z,8.18
2024-03-09T23:55:13.427Z,9.40
2024-03-09T23:57:41.573Z,9.27
